createdAt,value
2023-05-02T00:00:03.348Z,1348.9166
2023-05-02T00:01:07.374Z,1428.2500
2023-05-02T00:02:11.439Z,1374.7500
2023-05-02T00:03:15.408Z,1058.4166
2023-05-02T00:04:19.383Z,1088.0834
2023-05-02T00:05:23.550Z,1234.1666
2023-05-02T00:06:27.504Z,1344.3334
2023-05-02T00:07:31.419Z,1426.4166
2023-05-02T00:08:35.330Z,1389.2500
2023-05-02T00:09:39.240Z,1104.2500
2023-05-02T00:10:43.140Z,1166.8334
2023-05-02T00:11:47.039Z,1295.5000
2023-05-02T00:12:50.938Z,1397.5000
2023-05-02T00:13:54.824Z,1461.5000
2023-05-02T00:14:59.490Z,1385.4166
2023-05-02T00:16:03.380Z,1035.7500
2023-05-02T00:17:07.338Z,1052.9166
2023-05-02T00:18:11.252Z,1208.4166
2023-05-02T00:19:15.150Z,1321.2500
2023-05-02T00:20:19.131Z,1411.9166
2023-05-02T00:21:23.034Z,1399.1666
2023-05-02T00:22:26.921Z,1064.9166
2023-05-02T00:23:30.814Z,1035.0834
2023-05-02T00:24:34.700Z,1187.5000
2023-05-02T00:25:38.596Z,1313.8334
2023-05-02T00:26:42.475Z,1406.4166
2023-05-02T00:27:46.378Z,1424.5834
2023-05-02T00:28:50.272Z,1095.7500
2023-05-02T00:29:50.732Z,961.3636
2023-05-02T00:30:54.647Z,1114.1666
2023-05-02T00:31:58.556Z,1258.7500
2023-05-02T00:33:02.493Z,1366.0000
2023-05-02T00:34:06.358Z,1430.9166
2023-05-02T00:35:10.257Z,1199.5834
2023-05-02T00:36:14.152Z,1012.1667
2023-05-02T00:37:18.060Z,1147.7500
2023-05-02T00:38:21.934Z,1281.2500
2023-05-02T00:39:25.822Z,1376.1666
2023-05-02T00:40:29.810Z,1444.4166
2023-05-02T00:41:33.692Z,1269.5834
2023-05-02T00:42:37.606Z,1208.3334
2023-05-02T00:43:41.510Z,1317.5834
2023-05-02T00:44:45.407Z,1409.0834
2023-05-02T00:45:49.325Z,1464.1666
2023-05-02T00:46:53.386Z,1468.4166
2023-05-02T00:47:57.385Z,1130.9166
2023-05-02T00:49:01.319Z,911.2500
2023-05-02T00:50:05.272Z,1061.5834
2023-05-02T00:51:09.165Z,1221.2500
2023-05-02T00:52:13.047Z,1335.4166
2023-05-02T00:53:16.964Z,1424.8334
2023-05-02T00:54:20.873Z,1272.8334
2023-05-02T00:55:24.791Z,1138.5834
2023-05-02T00:56:28.692Z,1260.0000
2023-05-02T00:57:32.601Z,1362.5834
2023-05-02T00:58:36.512Z,1438.4166
2023-05-02T00:59:40.444Z,1478.1666
2023-05-02T01:00:44.330Z,1206.6666
2023-05-02T01:01:48.286Z,894.9167
2023-05-02T01:02:52.319Z,998.3333
2023-05-02T01:03:56.350Z,1173.7500
2023-05-02T01:05:00.254Z,1303.3334
2023-05-02T01:06:04.254Z,1396.5834
2023-05-02T01:07:08.102Z,1339.1666
2023-05-02T01:08:12.127Z,1164.0834
2023-05-02T01:09:16.002Z,1256.0834
2023-05-02T01:10:19.899Z,1361.3334
2023-05-02T01:11:23.812Z,1433.5834
2023-05-02T01:12:27.708Z,1489.1666
2023-05-02T01:13:31.626Z,1278.5000
2023-05-02T01:14:35.520Z,951.4167
2023-05-02T01:15:39.453Z,1032.2500
2023-05-02T01:16:43.408Z,1196.6666
2023-05-02T01:17:47.338Z,1320.9166
2023-05-02T01:18:51.219Z,1410.6666
2023-05-02T01:19:55.107Z,1357.5834
2023-05-02T01:20:59.001Z,1019.1667
2023-05-02T01:22:02.958Z,1042.1666
2023-05-02T01:23:07.206Z,1197.0834
2023-05-02T01:24:11.103Z,1314.1666
2023-05-02T01:25:15.010Z,1403.6666
2023-05-02T01:26:18.913Z,1392.9166
2023-05-02T01:27:22.831Z,1076.9166
2023-05-02T01:28:26.747Z,1074.4166
2023-05-02T01:29:30.658Z,1223.2500
2023-05-02T01:30:34.568Z,1332.7500
2023-05-02T01:31:38.593Z,1414.0834
2023-05-02T01:32:42.783Z,1402.0834
2023-05-02T01:33:46.667Z,1047.2500
2023-05-02T01:34:50.565Z,927.1667
2023-05-02T01:35:54.525Z,1102.1666
2023-05-02T01:36:58.416Z,1252.4166
2023-05-02T01:38:02.333Z,1352.9166
2023-05-02T01:39:06.212Z,1421.1666
2023-05-02T01:40:10.133Z,1181.8334
2023-05-02T01:41:14.023Z,1023.4167
2023-05-02T01:42:17.942Z,1165.5000
2023-05-02T01:43:21.856Z,1284.6666
2023-05-02T01:44:25.729Z,1385.2500
2023-05-02T01:45:29.622Z,1438.5000
2023-05-02T01:46:33.577Z,1199.6666
2023-05-02T01:47:37.512Z,978.5833
2023-05-02T01:48:41.416Z,1106.0000
2023-05-02T01:49:45.316Z,1249.0000
2023-05-02T01:50:49.239Z,1357.2500
2023-05-02T01:51:53.162Z,1428.8334
2023-05-02T01:52:57.093Z,1262.1666
2023-05-02T01:54:00.968Z,980.8333
2023-05-02T01:55:04.866Z,1087.6666
2023-05-02T01:56:08.748Z,1232.8334
2023-05-02T01:57:12.650Z,1346.4166
2023-05-02T01:58:16.771Z,1420.2500
2023-05-02T01:59:20.649Z,1304.4166
2023-05-02T02:00:24.783Z,1005.3333
2023-05-02T02:01:28.699Z,1081.7500
2023-05-02T02:02:32.586Z,1231.8334
2023-05-02T02:03:36.578Z,1337.0834
2023-05-02T02:04:40.628Z,1416.3334
2023-05-02T02:05:41.605Z,1343.2000
2023-05-02T02:06:45.624Z,1091.2500
2023-05-02T02:07:49.896Z,1168.5000
2023-05-02T02:08:53.782Z,1288.8334
2023-05-02T02:09:57.805Z,1387.3334
2023-05-02T02:11:01.795Z,1448.9166
2023-05-02T02:12:05.712Z,1326.8334
2023-05-02T02:13:09.624Z,1021.7500
2023-05-02T02:14:13.536Z,1096.1666
2023-05-02T02:15:17.444Z,1237.0000
2023-05-02T02:16:21.416Z,1345.6666
2023-05-02T02:17:25.676Z,1428.9166
2023-05-02T02:18:29.851Z,1346.0000
2023-05-02T02:19:33.746Z,1007.7500
2023-05-02T02:20:37.644Z,1053.0000
2023-05-02T02:21:41.519Z,1205.6666
2023-05-02T02:22:45.646Z,1325.0834
2023-05-02T02:23:49.563Z,1412.0834
2023-05-02T02:24:54.405Z,1379.2500
2023-05-02T02:25:58.495Z,1119.0000
2023-05-02T02:27:02.388Z,1186.2500
2023-05-02T02:28:06.280Z,1303.4166
2023-05-02T02:29:10.184Z,1397.4166
2023-05-02T02:30:14.119Z,1456.3334
2023-05-02T02:31:18.093Z,1346.7500
2023-05-02T02:32:21.956Z,1000.9167
2023-05-02T02:33:25.840Z,1031.5000
2023-05-02T02:34:29.726Z,1194.5834
2023-05-02T02:35:33.615Z,1310.2500
2023-05-02T02:36:37.521Z,1407.0000
2023-05-02T02:37:41.404Z,1386.6666
2023-05-02T02:38:45.291Z,1069.8334
2023-05-02T02:39:49.174Z,1092.9166
2023-05-02T02:40:53.051Z,1235.5834
2023-05-02T02:41:56.937Z,1343.8334
2023-05-02T02:43:00.848Z,1427.9166
2023-05-02T02:44:04.726Z,1397.0000
2023-05-02T02:45:09.570Z,1122.5834
2023-05-02T02:46:13.489Z,1168.4166
2023-05-02T02:47:17.350Z,1299.7500
2023-05-02T02:48:21.233Z,1395.6666
2023-05-02T02:49:25.147Z,1457.5834
2023-05-02T02:50:29.025Z,1377.1666
2023-05-02T02:51:32.961Z,1025.5000
2023-05-02T02:52:37.095Z,1042.6666
2023-05-02T02:53:41.001Z,1200.5000
2023-05-02T02:54:44.928Z,1320.5834
2023-05-02T02:55:49.593Z,1411.9166
2023-05-02T02:56:53.485Z,1400.5834
2023-05-02T02:57:57.378Z,1061.0834
2023-05-02T02:59:01.272Z,966.0000
2023-05-02T03:00:05.390Z,1130.3334
2023-05-02T03:01:09.300Z,1267.9166
2023-05-02T03:02:13.221Z,1379.0834
2023-05-02T03:03:17.169Z,1430.0000
2023-05-02T03:04:21.155Z,1157.5834
2023-05-02T03:05:25.667Z,1036.5834
2023-05-02T03:06:29.627Z,1177.1666
2023-05-02T03:07:33.626Z,1302.6666
2023-05-02T03:08:37.544Z,1393.1666
2023-05-02T03:09:41.454Z,1441.5834
2023-05-02T03:10:45.354Z,1178.3334
2023-05-02T03:11:49.267Z,938.4167
2023-05-02T03:12:53.188Z,1077.9166
2023-05-02T03:13:57.097Z,1230.7500
2023-05-02T03:15:01.259Z,1339.5000
2023-05-02T03:16:05.181Z,1427.6666
2023-05-02T03:17:09.172Z,1283.1666
2023-05-02T03:18:13.083Z,1004.8333
2023-05-02T03:19:17.279Z,1107.4166
2023-05-02T03:20:21.167Z,1246.5834
2023-05-02T03:21:25.069Z,1353.7500
2023-05-02T03:22:28.954Z,1431.0834
2023-05-02T03:23:32.835Z,1331.5000
2023-05-02T03:24:36.710Z,1200.8334
2023-05-02T03:25:40.614Z,1302.7500
2023-05-02T03:26:44.514Z,1391.3334
2023-05-02T03:27:48.405Z,1463.5000
2023-05-02T03:28:52.396Z,1492.8334
2023-05-02T03:29:56.300Z,1225.4166
2023-05-02T03:31:00.326Z,893.3333
2023-05-02T03:32:04.407Z,982.2500
2023-05-02T03:33:08.417Z,1153.9166
2023-05-02T03:34:12.305Z,1293.7500
2023-05-02T03:35:16.196Z,1392.7500
2023-05-02T03:36:20.090Z,1365.6666
2023-05-02T03:37:24.003Z,1045.1666
2023-05-02T03:38:27.913Z,1064.7500
2023-05-02T03:39:31.824Z,1218.7500
2023-05-02T03:40:35.713Z,1335.8334
2023-05-02T03:41:39.595Z,1419.8334
2023-05-02T03:42:43.493Z,1392.8334
2023-05-02T03:43:47.376Z,1090.1666
2023-05-02T03:44:51.276Z,1122.5000
2023-05-02T03:45:55.154Z,1258.9166
2023-05-02T03:46:59.125Z,1368.7500
2023-05-02T03:48:03.135Z,1445.8334
2023-05-02T03:49:07.003Z,1404.0834
2023-05-02T03:50:07.411Z,1044.3636
2023-05-02T03:51:11.308Z,926.8333
2023-05-02T03:52:15.198Z,1099.3334
2023-05-02T03:53:19.094Z,1253.0834
2023-05-02T03:54:22.984Z,1359.0834
2023-05-02T03:55:26.878Z,1425.8334
2023-05-02T03:56:30.749Z,1191.3334
2023-05-02T03:57:34.690Z,970.4167
2023-05-02T03:58:38.546Z,1108.3334
2023-05-02T03:59:42.419Z,1255.0834
2023-05-02T04:00:46.316Z,1362.9166
2023-05-02T04:01:50.318Z,1436.3334
2023-05-02T04:02:54.548Z,1271.4166
2023-05-02T04:03:58.512Z,965.6667
2023-05-02T04:05:02.391Z,1059.9166
2023-05-02T04:06:06.285Z,1218.0000
2023-05-02T04:07:10.170Z,1334.8334
2023-05-02T04:08:14.044Z,1418.3334
2023-05-02T04:09:17.929Z,1340.4166
2023-05-02T04:10:21.824Z,979.5000
2023-05-02T04:11:25.790Z,944.1667
2023-05-02T04:12:29.632Z,1124.4166
2023-05-02T04:13:33.523Z,1267.5834
2023-05-02T04:14:37.442Z,1375.7500
2023-05-02T04:15:41.351Z,1417.8334
2023-05-02T04:16:45.302Z,1158.3334
2023-05-02T04:17:49.264Z,1168.3334
2023-05-02T04:18:53.146Z,1289.5000
2023-05-02T04:19:57.037Z,1390.4166
2023-05-02T04:21:00.941Z,1459.0000
2023-05-02T04:22:04.869Z,1430.5834
2023-05-02T04:23:04.965Z,1084.3636
2023-05-02T04:24:08.872Z,1025.0000
2023-05-02T04:25:12.780Z,1181.3334
2023-05-02T04:26:16.689Z,1312.0834
2023-05-02T04:27:20.586Z,1408.5834
2023-05-02T04:28:24.531Z,1445.5834
2023-05-02T04:29:28.421Z,1168.8334
2023-05-02T04:30:32.325Z,1077.5000
2023-05-02T04:31:36.276Z,1219.5000
2023-05-02T04:32:40.277Z,1345.5834
2023-05-02T04:33:44.185Z,1432.0834
2023-05-02T04:34:48.051Z,1457.8334
2023-05-02T04:35:52.213Z,1157.2500
2023-05-02T04:36:56.117Z,959.5833
2023-05-02T04:38:00.256Z,1105.4166
2023-05-02T04:39:04.173Z,1254.9166
2023-05-02T04:40:08.109Z,1365.2500
2023-05-02T04:41:12.007Z,1446.3334
2023-05-02T04:42:15.914Z,1255.0000
2023-05-02T04:43:19.822Z,978.0000
2023-05-02T04:44:23.735Z,1085.4166
2023-05-02T04:45:27.873Z,1234.2500
2023-05-02T04:46:31.886Z,1345.7500
2023-05-02T04:47:35.824Z,1430.8334
2023-05-02T04:48:39.723Z,1332.7500
2023-05-02T04:49:43.621Z,1085.2500
2023-05-02T04:50:47.509Z,1184.1666
2023-05-02T04:51:51.407Z,1308.3334
2023-05-02T04:52:55.317Z,1398.7500
2023-05-02T04:53:59.235Z,1466.0000
2023-05-02T04:55:03.133Z,1306.8334
2023-05-02T04:56:07.013Z,1095.5834
2023-05-02T04:57:11.040Z,1206.0000
2023-05-02T04:58:14.964Z,1325.9166
2023-05-02T04:59:18.866Z,1408.7500
2023-05-02T05:00:19.268Z,1470.4546
2023-05-02T05:01:23.180Z,1296.1666
2023-05-02T05:02:27.302Z,983.3333
2023-05-02T05:03:31.338Z,1067.5000
2023-05-02T05:04:35.232Z,1218.4166
2023-05-02T05:05:39.254Z,1340.5000
2023-05-02T05:06:43.259Z,1426.7500
2023-05-02T05:07:47.125Z,1362.0834
2023-05-02T05:08:51.011Z,1011.8333
2023-05-02T05:09:54.940Z,1003.8333
2023-05-02T05:10:59.125Z,1175.6666
2023-05-02T05:12:03.037Z,1302.5834
2023-05-02T05:13:07.183Z,1397.2500
2023-05-02T05:14:11.111Z,1411.5000
2023-05-02T05:15:15.008Z,1084.1666
2023-05-02T05:16:18.981Z,967.5833
2023-05-02T05:17:22.920Z,1137.9166
2023-05-02T05:18:26.793Z,1274.1666
2023-05-02T05:19:30.681Z,1380.0834
2023-05-02T05:20:34.562Z,1404.3334
2023-05-02T05:23:09.552Z,403.3333
2023-05-02T05:24:11.308Z,400.0000
2023-05-02T05:25:13.017Z,411.0769
2023-05-02T05:26:14.720Z,633.5385
2023-05-02T05:27:16.481Z,894.5385
2023-05-02T05:28:18.187Z,1092.5385
2023-05-02T05:29:19.900Z,1234.7693
2023-05-02T05:30:21.627Z,1290.6154
2023-05-02T05:31:23.348Z,1149.3846
2023-05-02T05:32:25.109Z,1226.2307
2023-05-02T05:33:26.907Z,1323.8462
2023-05-02T05:34:28.530Z,1404.2307
2023-05-02T05:35:30.248Z,1471.0000
2023-05-02T05:36:31.937Z,1377.1538
2023-05-02T05:37:33.653Z,1036.3077
2023-05-02T05:38:35.377Z,1035.6923
2023-05-02T05:39:37.111Z,1167.3077
2023-05-02T05:40:38.820Z,1277.6923
2023-05-02T05:41:40.542Z,1361.7693
2023-05-02T05:42:42.261Z,1385.5385
2023-05-02T05:43:43.970Z,1107.5385
2023-05-02T05:44:45.736Z,1028.5385
2023-05-02T05:45:47.440Z,1155.8462
2023-05-02T05:46:50.024Z,1259.9231
2023-05-02T05:47:50.921Z,1339.0769
2023-05-02T05:48:52.603Z,1384.3846
2023-05-02T05:49:54.321Z,1134.0769
2023-05-02T05:50:56.031Z,925.5385
2023-05-02T05:51:57.762Z,1038.2307
2023-05-02T05:52:59.482Z,1165.4615
2023-05-02T05:54:01.191Z,1261.4615
2023-05-02T05:55:02.885Z,1333.8462
2023-05-02T05:56:04.609Z,1212.5385
2023-05-02T05:57:06.339Z,884.6154
2023-05-02T05:58:08.060Z,911.7692
2023-05-02T05:59:09.784Z,1061.0000
2023-05-02T06:00:11.503Z,1177.1538
2023-05-02T06:01:13.215Z,1267.2307
2023-05-02T06:02:15.001Z,1280.6154
2023-05-02T06:03:16.705Z,961.0000
2023-05-02T06:04:18.367Z,753.2308
2023-05-02T06:05:20.105Z,896.9231
2023-05-02T06:06:21.894Z,1046.3846
2023-05-02T06:07:23.533Z,1156.6923
2023-05-02T06:08:25.264Z,1239.8462
2023-05-02T06:09:26.979Z,1149.2307
2023-05-02T06:10:28.787Z,792.3077
2023-05-02T06:11:30.415Z,741.1539
2023-05-02T06:12:32.139Z,913.3846
2023-05-02T06:13:33.854Z,1053.9231
2023-05-02T06:14:35.586Z,1165.1538
2023-05-02T06:15:37.365Z,1235.7693
2023-05-02T06:16:39.128Z,1017.8461
2023-05-02T06:17:40.747Z,742.0000
2023-05-02T06:18:42.428Z,843.4615
2023-05-02T06:19:44.151Z,999.0769
2023-05-02T06:20:45.892Z,1121.8462
2023-05-02T06:21:47.619Z,1212.2307
2023-05-02T06:22:49.338Z,1181.7693
2023-05-02T06:23:51.053Z,877.5385
2023-05-02T06:24:52.768Z,873.3846
2023-05-02T06:25:54.494Z,1013.2308
2023-05-02T06:26:56.231Z,1131.1538
2023-05-02T06:27:57.939Z,1217.3846
2023-05-02T06:28:59.664Z,1246.2307
2023-05-02T06:30:01.623Z,1004.5385
2023-05-02T06:31:03.190Z,972.2308
2023-05-02T06:32:04.874Z,1065.0769
2023-05-02T06:33:06.584Z,1180.9231
2023-05-02T06:34:08.246Z,1259.1538
2023-05-02T06:35:09.992Z,1286.5385
2023-05-02T06:36:11.661Z,998.7692
2023-05-02T06:37:13.391Z,729.4615
2023-05-02T06:38:15.106Z,846.3846
2023-05-02T06:39:16.827Z,1001.3077
2023-05-02T06:40:18.537Z,1131.6923
2023-05-02T06:41:20.299Z,1219.6923
2023-05-02T06:42:21.986Z,1199.0769
2023-05-02T06:43:23.710Z,854.2308
2023-05-02T06:44:25.469Z,720.2308
2023-05-02T06:45:27.165Z,885.6154
2023-05-02T06:46:28.895Z,1035.0769
2023-05-02T06:47:30.701Z,1150.3846
2023-05-02T06:48:32.319Z,1232.7693
2023-05-02T06:49:34.032Z,1086.5385
2023-05-02T06:50:35.775Z,849.8461
2023-05-02T06:51:37.503Z,946.6154
2023-05-02T06:52:39.205Z,1079.0769
2023-05-02T06:53:40.970Z,1180.0769
2023-05-02T06:54:42.659Z,1257.3077
2023-05-02T06:55:44.379Z,1187.8462
2023-05-02T06:56:46.111Z,861.5385
2023-05-02T06:57:47.822Z,859.8461
2023-05-02T06:58:49.556Z,1009.0769
2023-05-02T06:59:51.308Z,1128.3846
2023-05-02T07:00:53.005Z,1216.0000
2023-05-02T07:01:54.717Z,1255.9231
2023-05-02T07:02:56.487Z,988.4615
2023-05-02T07:03:58.196Z,875.5385
2023-05-02T07:04:59.883Z,1010.6154
2023-05-02T07:06:01.684Z,1129.6154
2023-05-02T07:07:03.333Z,1226.2307
2023-05-02T07:08:05.053Z,1279.0769
2023-05-02T07:09:06.784Z,1082.2307
2023-05-02T07:10:08.505Z,891.3846
2023-05-02T07:11:10.241Z,1005.0769
2023-05-02T07:12:11.935Z,1123.6923
2023-05-02T07:13:13.653Z,1219.2307
2023-05-02T07:14:15.378Z,1286.1538
2023-05-02T07:15:17.065Z,1150.6154
2023-05-02T07:16:18.846Z,844.3077
2023-05-02T07:17:20.540Z,893.2308
2023-05-02T07:18:22.236Z,1040.7693
2023-05-02T07:19:23.954Z,1155.9231
2023-05-02T07:20:25.743Z,1236.3077
2023-05-02T07:21:27.419Z,989.3846
2023-05-02T07:22:29.115Z,727.3077
2023-05-02T07:23:30.847Z,702.9231
2023-05-02T07:24:32.568Z,690.1539
2023-05-02T07:25:34.279Z,694.2308
2023-05-02T07:26:35.996Z,696.9231
2023-05-02T07:27:37.742Z,698.6923
2023-05-02T07:28:39.453Z,703.0769
2023-05-02T07:29:41.183Z,700.8461
2023-05-02T07:30:42.891Z,707.3846
2023-05-02T07:31:44.668Z,707.9231
2023-05-02T07:32:46.393Z,711.6923
2023-05-02T07:33:48.065Z,710.6154
2023-05-02T07:34:49.758Z,709.3846
2023-05-02T07:35:51.485Z,711.8461
2023-05-02T07:36:53.203Z,714.6923
2023-05-02T07:37:54.997Z,718.8333
2023-05-02T07:38:57.448Z,722.5833
2023-05-02T07:40:01.598Z,722.9167
2023-05-02T07:41:05.779Z,720.2500
2023-05-02T07:42:09.674Z,722.8333
2023-05-02T07:43:13.563Z,720.9167
2023-05-02T07:44:17.438Z,730.0833
2023-05-02T07:45:21.492Z,734.0000
2023-05-02T07:46:25.554Z,736.0000
2023-05-02T07:47:33.434Z,733.6667
2023-05-02T07:48:32.029Z,737.9091
2023-05-02T07:49:35.907Z,736.5833
2023-05-02T07:50:39.823Z,737.8333
2023-05-02T07:51:44.581Z,737.4167
2023-05-02T07:52:48.875Z,739.0000
2023-05-02T07:53:52.278Z,735.0000
2023-05-02T07:54:56.181Z,741.0833
2023-05-02T07:56:00.134Z,742.2500
2023-05-02T07:57:04.148Z,738.5833
2023-05-02T07:58:08.041Z,739.1667
2023-05-02T07:59:12.176Z,745.3333
2023-05-02T08:00:16.135Z,756.5000
2023-05-02T08:01:20.027Z,750.4167
2023-05-02T08:02:25.852Z,761.8333
2023-05-02T08:03:24.800Z,755.4545
2023-05-02T08:04:30.610Z,759.8333
2023-05-02T08:05:29.297Z,755.2727
2023-05-02T08:06:33.252Z,758.5000
2023-05-02T08:07:37.390Z,761.9167
2023-05-02T08:08:41.330Z,755.1667
2023-05-02T08:09:45.243Z,759.0833
2023-05-02T08:10:49.281Z,757.5000
2023-05-02T08:11:53.178Z,756.7500
2023-05-02T08:12:59.384Z,757.9167
2023-05-02T08:13:58.490Z,758.4545
2023-05-02T08:14:58.916Z,614.7273
2023-05-02T08:16:02.914Z,403.7500
2023-05-02T08:17:06.790Z,400.0000
2023-05-02T08:18:10.804Z,411.0833
2023-05-02T08:19:14.726Z,611.0833
2023-05-02T08:20:18.596Z,826.6667
2023-05-02T08:21:22.517Z,980.9167
2023-05-02T08:22:26.390Z,1065.8334
2023-05-02T08:23:30.308Z,989.2500
2023-05-02T08:24:34.210Z,1086.5000
2023-05-02T08:25:38.156Z,1182.3334
2023-05-02T08:26:42.073Z,1262.0000
2023-05-02T08:27:45.987Z,1319.0000
2023-05-02T08:28:49.890Z,1149.6666
2023-05-02T08:29:53.839Z,799.5000
2023-05-02T08:30:57.724Z,758.0000
2023-05-02T08:32:01.728Z,923.2500
2023-05-02T08:33:05.706Z,1062.2500
2023-05-02T08:34:09.614Z,1172.5834
2023-05-02T08:35:13.493Z,1222.8334
2023-05-02T08:36:17.378Z,971.5833
2023-05-02T08:37:21.301Z,831.3333
2023-05-02T08:38:25.186Z,958.8333
2023-05-02T08:39:29.082Z,1086.0834
2023-05-02T08:40:41.571Z,1187.1666
2023-05-02T08:41:37.461Z,1261.8182
2023-05-02T08:42:41.375Z,1043.6666
2023-05-02T08:43:45.406Z,788.3333
2023-05-02T08:44:49.298Z,881.1667
2023-05-02T08:45:53.202Z,1025.7500
2023-05-02T08:46:57.160Z,1139.6666
2023-05-02T08:48:01.146Z,1229.0834
2023-05-02T08:49:05.015Z,1152.2500
2023-05-02T08:50:09.188Z,815.2500
2023-05-02T08:51:13.087Z,831.0833
2023-05-02T08:52:16.995Z,982.9167
2023-05-02T08:53:20.927Z,1116.2500
2023-05-02T08:54:25.025Z,1217.4166
2023-05-02T08:55:28.946Z,1227.7500
2023-05-02T08:56:32.868Z,940.2500
2023-05-02T08:57:37.097Z,924.0000
2023-05-02T08:58:41.046Z,1052.7500
2023-05-02T08:59:44.910Z,1165.1666
2023-05-02T09:00:48.831Z,1249.0000
2023-05-02T09:01:52.723Z,1246.5834
2023-05-02T09:02:56.636Z,931.4167
2023-05-02T09:04:00.609Z,825.9167
2023-05-02T09:05:04.514Z,961.7500
2023-05-02T09:06:08.432Z,1091.4166
2023-05-02T09:07:12.328Z,1194.3334
2023-05-02T09:08:16.213Z,1257.7500
2023-05-02T09:09:20.127Z,1018.1667
2023-05-02T09:10:24.039Z,823.5000
2023-05-02T09:11:27.991Z,953.2500
2023-05-02T09:12:32.087Z,1087.2500
2023-05-02T09:13:35.996Z,1184.3334
2023-05-02T09:14:39.875Z,1255.1666
2023-05-02T09:15:43.781Z,1072.0000
2023-05-02T09:16:47.793Z,785.1667
2023-05-02T09:17:51.982Z,875.9167
2023-05-02T09:18:55.918Z,1026.1666
2023-05-02T09:19:59.936Z,1145.0834
2023-05-02T09:21:03.849Z,1233.4166
2023-05-02T09:22:07.768Z,1154.8334
2023-05-02T09:23:11.682Z,832.5833
2023-05-02T09:24:15.614Z,862.5833
2023-05-02T09:25:19.753Z,1008.1667
2023-05-02T09:26:23.675Z,1125.4166
2023-05-02T09:27:27.532Z,1219.0000
2023-05-02T09:28:31.430Z,1206.9166
2023-05-02T09:29:35.349Z,877.8333
2023-05-02T09:30:39.296Z,819.0000
2023-05-02T09:31:55.616Z,963.5833
2023-05-02T09:32:47.748Z,1097.0909
2023-05-02T09:33:51.640Z,1192.5834
2023-05-02T09:34:55.552Z,1237.5000
2023-05-02T09:35:59.438Z,885.3333
2023-05-02T09:37:03.363Z,676.5000
2023-05-02T09:38:07.231Z,828.2500
2023-05-02T09:39:11.132Z,990.1667
2023-05-02T09:40:15.065Z,1111.2500
2023-05-02T09:41:18.945Z,1202.0000
2023-05-02T09:42:22.858Z,1069.5000
2023-05-02T09:43:26.755Z,823.2500
2023-05-02T09:44:30.752Z,918.2500
2023-05-02T09:45:35.362Z,1060.5834
2023-05-02T09:46:39.404Z,1162.5000
2023-05-02T09:47:43.304Z,1239.6666
2023-05-02T09:48:47.162Z,1114.7500
2023-05-02T09:49:51.069Z,755.1667
2023-05-02T09:50:54.989Z,736.7500
2023-05-02T09:51:58.890Z,906.1667
2023-05-02T09:53:02.928Z,1048.5834
2023-05-02T09:54:06.925Z,1157.7500
2023-05-02T09:55:10.789Z,1199.3334
2023-05-02T09:56:14.710Z,911.0833
2023-05-02T09:57:18.643Z,813.6667
2023-05-02T09:58:22.535Z,957.4167
2023-05-02T09:59:26.425Z,1085.2500
2023-05-02T10:00:30.347Z,1184.0000
2023-05-02T10:01:34.269Z,1237.4166
2023-05-02T10:02:38.258Z,963.8333
2023-05-02T10:03:42.187Z,741.5833
2023-05-02T10:04:46.144Z,870.1667
2023-05-02T10:05:50.071Z,1017.4167
2023-05-02T10:06:53.978Z,1128.3334
2023-05-02T10:07:57.893Z,1216.3334
2023-05-02T10:09:01.817Z,1066.2500
2023-05-02T10:10:05.733Z,814.6667
2023-05-02T10:11:09.633Z,921.1667
2023-05-02T10:12:13.564Z,1056.5000
2023-05-02T10:13:17.475Z,1160.5834
2023-05-02T10:14:21.491Z,1240.2500
2023-05-02T10:15:25.374Z,1111.7500
2023-05-02T10:16:29.290Z,846.2500
2023-05-02T10:17:33.550Z,931.2500
2023-05-02T10:18:37.458Z,1062.0000
2023-05-02T10:19:41.370Z,1160.1666
2023-05-02T10:20:45.257Z,1241.5000
2023-05-02T10:21:49.178Z,1121.0000
2023-05-02T10:22:53.100Z,906.0000
2023-05-02T10:23:56.993Z,997.4167
2023-05-02T10:25:01.201Z,1114.9166
2023-05-02T10:26:05.365Z,1201.8334
2023-05-02T10:27:09.295Z,1273.5000
2023-05-02T10:28:13.194Z,1088.7500
2023-05-02T10:29:17.145Z,793.7500
2023-05-02T10:30:21.039Z,872.3333
2023-05-02T10:31:24.960Z,1023.9167
2023-05-02T10:32:29.219Z,1142.2500
2023-05-02T10:33:33.125Z,1236.8334
2023-05-02T10:34:36.988Z,1147.8334
2023-05-02T10:35:40.959Z,798.5833
2023-05-02T10:36:44.826Z,798.7500
2023-05-02T10:37:48.896Z,956.3333
2023-05-02T10:38:52.792Z,1086.0834
2023-05-02T10:39:56.693Z,1187.5834
2023-05-02T10:41:00.576Z,1206.3334
2023-05-02T10:42:04.488Z,919.7500
2023-05-02T10:43:08.414Z,905.2500
2023-05-02T10:44:12.323Z,1042.0000
2023-05-02T10:45:16.234Z,1147.7500
2023-05-02T10:46:20.189Z,1238.0000
2023-05-02T10:47:24.152Z,1231.0000
2023-05-02T10:48:28.104Z,895.3333
2023-05-02T10:49:32.029Z,729.5000
2023-05-02T10:50:36.138Z,885.2500
2023-05-02T10:51:40.044Z,1028.9166
2023-05-02T10:52:43.951Z,1145.1666
2023-05-02T10:53:47.893Z,1225.1666
2023-05-02T10:54:51.810Z,1026.9166
2023-05-02T10:55:55.717Z,792.2500
2023-05-02T10:56:59.625Z,911.3333
2023-05-02T10:58:03.529Z,1049.3334
2023-05-02T10:59:07.435Z,1161.7500
2023-05-02T11:00:07.632Z,1240.0909
2023-05-02T11:01:11.587Z,1119.4166
2023-05-02T11:02:15.708Z,818.1667
2023-05-02T11:03:19.642Z,892.5000
2023-05-02T11:04:23.532Z,1031.0000
2023-05-02T11:05:27.399Z,1143.5834
2023-05-02T11:06:31.323Z,1235.1666
2023-05-02T11:07:35.234Z,1161.8334
2023-05-02T11:08:39.167Z,850.0000
2023-05-02T11:09:43.056Z,889.2500
2023-05-02T11:10:46.986Z,1031.5834
2023-05-02T11:11:50.899Z,1151.2500
2023-05-02T11:12:54.797Z,1240.0000
2023-05-02T11:13:58.698Z,1195.4166
2023-05-02T11:15:02.790Z,856.7500
2023-05-02T11:16:06.920Z,810.8333
2023-05-02T11:17:10.786Z,964.1667
2023-05-02T11:18:14.811Z,1098.5000
2023-05-02T11:19:18.678Z,1197.0834
2023-05-02T11:20:22.549Z,1227.5000
2023-05-02T11:21:26.442Z,917.2500
2023-05-02T11:22:30.350Z,777.6667
2023-05-02T11:23:34.219Z,923.0000
2023-05-02T11:24:38.142Z,1064.0000
2023-05-02T11:25:42.098Z,1168.3334
2023-05-02T11:26:45.978Z,1238.4166
2023-05-02T11:27:49.917Z,1014.3333
2023-05-02T11:28:53.809Z,835.6667
2023-05-02T11:29:57.723Z,961.3333
2023-05-02T11:31:01.614Z,1097.5000
2023-05-02T11:32:05.554Z,1199.0834
2023-05-02T11:33:09.470Z,1272.8334
2023-05-02T11:34:13.333Z,1063.7500
2023-05-02T11:35:17.228Z,774.4167
2023-05-02T11:36:21.147Z,872.5000
2023-05-02T11:37:25.049Z,1026.5834
2023-05-02T11:38:28.992Z,1141.1666
2023-05-02T11:39:32.890Z,1232.0834
2023-05-02T11:40:36.799Z,1148.4166
2023-05-02T11:41:40.724Z,820.0833
2023-05-02T11:42:44.632Z,851.5000
2023-05-02T11:43:48.542Z,1008.3333
2023-05-02T11:44:52.461Z,1129.0000
2023-05-02T11:45:56.463Z,1221.7500
2023-05-02T11:47:00.385Z,1205.7500
2023-05-02T11:48:04.349Z,881.5000
2023-05-02T11:49:09.334Z,866.6667
2023-05-02T11:50:08.754Z,1014.0909
2023-05-02T11:51:12.680Z,1125.3334
2023-05-02T11:52:16.607Z,1219.3334
2023-05-02T11:53:20.512Z,1247.5000
2023-05-02T11:54:24.434Z,942.5833
2023-05-02T11:55:28.580Z,822.1667
2023-05-02T11:56:32.467Z,968.0833
2023-05-02T11:57:36.437Z,1100.1666
2023-05-02T11:58:40.347Z,1198.5000
2023-05-02T11:59:44.259Z,1259.0834
2023-05-02T12:00:48.179Z,1009.8333
2023-05-02T12:01:52.086Z,814.5000
2023-05-02T12:02:56.186Z,933.6667
2023-05-02T12:04:00.140Z,1078.8334
2023-05-02T12:05:04.331Z,1181.0834
2023-05-02T12:06:08.516Z,1264.6666
2023-05-02T12:07:12.523Z,1073.1666
2023-05-02T12:08:16.397Z,839.1667
2023-05-02T12:09:20.299Z,953.6667
2023-05-02T12:10:24.190Z,1092.1666